sensor_id;sensor_type;location;lat;lon;timestamp;P1;durP1;ratioP1;P2;durP2;ratioP2
18499;SDS011;9379;52.134;11.576;2023-07-29T00:00:39;2.70;;;2.50;;
18499;SDS011;9379;52.134;11.576;2023-07-29T00:03:06;2.47;;;2.28;;
18499;SDS011;9379;52.134;11.576;2023-07-29T00:05:33;3.65;;;3.15;;
18499;SDS011;9379;52.134;11.576;2023-07-29T00:08:00;3.25;;;2.95;;
18499;SDS011;9379;52.134;11.576;2023-07-29T00:10:26;2.88;;;2.33;;
18499;SDS011;9379;52.134;11.576;2023-07-29T00:12:54;3.72;;;2.92;;
18499;SDS011;9379;52.134;11.576;2023-07-29T00:15:21;2.72;;;2.20;;
18499;SDS011;9379;52.134;11.576;2023-07-29T00:17:48;1.65;;;1.55;;
18499;SDS011;9379;52.134;11.576;2023-07-29T00:20:16;3.08;;;2.60;;
18499;SDS011;9379;52.134;11.576;2023-07-29T00:22:45;2.03;;;1.73;;
18499;SDS011;9379;52.134;11.576;2023-07-29T00:25:14;2.83;;;2.60;;
18499;SDS011;9379;52.134;11.576;2023-07-29T00:27:41;2.30;;;2.17;;
18499;SDS011;9379;52.134;11.576;2023-07-29T00:30:10;2.65;;;2.08;;
18499;SDS011;9379;52.134;11.576;2023-07-29T00:32:37;1.85;;;1.73;;
18499;SDS011;9379;52.134;11.576;2023-07-29T00:35:04;2.20;;;2.00;;
18499;SDS011;9379;52.134;11.576;2023-07-29T00:37:32;2.30;;;1.98;;
18499;SDS011;9379;52.134;11.576;2023-07-29T00:39:59;2.30;;;2.10;;
18499;SDS011;9379;52.134;11.576;2023-07-29T00:42:25;2.55;;;1.98;;
18499;SDS011;9379;52.134;11.576;2023-07-29T00:44:52;3.95;;;2.03;;
18499;SDS011;9379;52.134;11.576;2023-07-29T00:47:20;2.63;;;2.42;;
18499;SDS011;9379;52.134;11.576;2023-07-29T00:49:48;2.53;;;2.33;;
18499;SDS011;9379;52.134;11.576;2023-07-29T00:52:15;1.42;;;1.33;;
18499;SDS011;9379;52.134;11.576;2023-07-29T00:54:42;4.53;;;4.10;;
18499;SDS011;9379;52.134;11.576;2023-07-29T00:57:09;2.63;;;2.42;;
18499;SDS011;9379;52.134;11.576;2023-07-29T00:59:40;2.30;;;2.20;;
18499;SDS011;9379;52.134;11.576;2023-07-29T01:02:07;2.90;;;2.15;;
18499;SDS011;9379;52.134;11.576;2023-07-29T01:04:35;2.58;;;2.45;;
18499;SDS011;9379;52.134;11.576;2023-07-29T01:07:03;5.15;;;2.20;;
18499;SDS011;9379;52.134;11.576;2023-07-29T01:09:40;2.67;;;2.15;;
18499;SDS011;9379;52.134;11.576;2023-07-29T01:12:21;2.95;;;2.10;;
18499;SDS011;9379;52.134;11.576;2023-07-29T01:14:55;2.65;;;2.42;;
18499;SDS011;9379;52.134;11.576;2023-07-29T01:17:29;1.85;;;1.75;;
18499;SDS011;9379;52.134;11.576;2023-07-29T01:20:01;2.92;;;2.72;;
18499;SDS011;9379;52.134;11.576;2023-07-29T01:22:33;2.08;;;1.90;;
18499;SDS011;9379;52.134;11.576;2023-07-29T01:25:03;2.60;;;2.15;;
18499;SDS011;9379;52.134;11.576;2023-07-29T01:27:30;2.38;;;2.17;;
18499;SDS011;9379;52.134;11.576;2023-07-29T01:29:57;3.80;;;2.78;;
18499;SDS011;9379;52.134;11.576;2023-07-29T01:32:25;2.05;;;1.95;;
18499;SDS011;9379;52.134;11.576;2023-07-29T01:34:59;1.95;;;1.85;;
18499;SDS011;9379;52.134;11.576;2023-07-29T01:37:30;1.70;;;1.60;;
18499;SDS011;9379;52.134;11.576;2023-07-29T01:40:00;1.90;;;1.80;;
18499;SDS011;9379;52.134;11.576;2023-07-29T01:42:29;2.38;;;2.17;;
18499;SDS011;9379;52.134;11.576;2023-07-29T01:45:22;2.42;;;2.22;;
18499;SDS011;9379;52.134;11.576;2023-07-29T01:47:50;2.33;;;2.13;;
18499;SDS011;9379;52.134;11.576;2023-07-29T01:50:17;3.00;;;2.70;;
18499;SDS011;9379;52.134;11.576;2023-07-29T01:52:44;2.78;;;2.55;;
18499;SDS011;9379;52.134;11.576;2023-07-29T01:55:11;3.25;;;2.83;;
18499;SDS011;9379;52.134;11.576;2023-07-29T01:57:39;2.63;;;2.40;;
18499;SDS011;9379;52.134;11.576;2023-07-29T02:00:06;2.33;;;2.13;;
18499;SDS011;9379;52.134;11.576;2023-07-29T02:02:34;2.85;;;2.63;;
18499;SDS011;9379;52.134;11.576;2023-07-29T02:05:00;2.53;;;2.33;;
18499;SDS011;9379;52.134;11.576;2023-07-29T02:07:27;2.25;;;2.05;;
18499;SDS011;9379;52.134;11.576;2023-07-29T02:09:54;3.75;;;2.45;;
18499;SDS011;9379;52.134;11.576;2023-07-29T02:12:21;2.83;;;2.63;;
18499;SDS011;9379;52.134;11.576;2023-07-29T02:14:49;3.42;;;3.15;;
18499;SDS011;9379;52.134;11.576;2023-07-29T02:17:16;2.88;;;2.67;;
18499;SDS011;9379;52.134;11.576;2023-07-29T02:19:43;3.20;;;2.65;;
18499;SDS011;9379;52.134;11.576;2023-07-29T02:22:10;2.17;;;1.98;;
18499;SDS011;9379;52.134;11.576;2023-07-29T02:24:39;2.17;;;1.98;;
18499;SDS011;9379;52.134;11.576;2023-07-29T02:27:06;2.92;;;2.33;;
18499;SDS011;9379;52.134;11.576;2023-07-29T02:29:33;3.35;;;2.70;;
18499;SDS011;9379;52.134;11.576;2023-07-29T02:32:01;3.03;;;2.72;;
18499;SDS011;9379;52.134;11.576;2023-07-29T02:34:28;2.17;;;2.05;;
18499;SDS011;9379;52.134;11.576;2023-07-29T02:36:55;2.58;;;2.03;;
18499;SDS011;9379;52.134;11.576;2023-07-29T02:39:22;2.72;;;2.53;;
18499;SDS011;9379;52.134;11.576;2023-07-29T02:41:49;4.20;;;3.00;;
18499;SDS011;9379;52.134;11.576;2023-07-29T02:44:16;2.55;;;2.35;;
18499;SDS011;9379;52.134;11.576;2023-07-29T02:46:44;4.30;;;2.70;;
18499;SDS011;9379;52.134;11.576;2023-07-29T02:49:12;4.80;;;3.30;;
18499;SDS011;9379;52.134;11.576;2023-07-29T02:51:39;3.15;;;2.85;;
18499;SDS011;9379;52.134;11.576;2023-07-29T02:54:06;3.67;;;2.58;;
18499;SDS011;9379;52.134;11.576;2023-07-29T02:56:33;5.57;;;2.92;;
18499;SDS011;9379;52.134;11.576;2023-07-29T02:58:59;2.42;;;2.22;;
18499;SDS011;9379;52.134;11.576;2023-07-29T03:01:26;3.78;;;2.70;;
18499;SDS011;9379;52.134;11.576;2023-07-29T03:03:53;2.72;;;2.13;;
18499;SDS011;9379;52.134;11.576;2023-07-29T03:06:22;2.53;;;2.33;;
18499;SDS011;9379;52.134;11.576;2023-07-29T03:08:48;2.88;;;2.67;;
18499;SDS011;9379;52.134;11.576;2023-07-29T03:11:15;2.47;;;2.28;;
18499;SDS011;9379;52.134;11.576;2023-07-29T03:13:42;2.78;;;2.58;;
18499;SDS011;9379;52.134;11.576;2023-07-29T03:16:10;3.45;;;3.20;;
18499;SDS011;9379;52.134;11.576;2023-07-29T03:18:38;2.45;;;2.25;;
18499;SDS011;9379;52.134;11.576;2023-07-29T03:21:05;2.42;;;2.22;;
18499;SDS011;9379;52.134;11.576;2023-07-29T03:23:33;2.83;;;2.50;;
18499;SDS011;9379;52.134;11.576;2023-07-29T03:26:01;2.90;;;2.70;;
18499;SDS011;9379;52.134;11.576;2023-07-29T03:28:35;4.68;;;3.85;;
18499;SDS011;9379;52.134;11.576;2023-07-29T03:31:02;3.13;;;2.83;;
18499;SDS011;9379;52.134;11.576;2023-07-29T03:33:29;3.25;;;2.95;;
18499;SDS011;9379;52.134;11.576;2023-07-29T03:35:56;2.90;;;2.70;;
18499;SDS011;9379;52.134;11.576;2023-07-29T03:38:23;5.40;;;3.42;;
18499;SDS011;9379;52.134;11.576;2023-07-29T03:40:51;2.92;;;2.72;;
18499;SDS011;9379;52.134;11.576;2023-07-29T03:43:18;2.92;;;2.20;;
18499;SDS011;9379;52.134;11.576;2023-07-29T03:45:45;3.38;;;3.08;;
18499;SDS011;9379;52.134;11.576;2023-07-29T03:48:12;2.97;;;2.70;;
18499;SDS011;9379;52.134;11.576;2023-07-29T03:50:38;5.05;;;2.63;;
18499;SDS011;9379;52.134;11.576;2023-07-29T03:53:08;4.20;;;2.58;;
18499;SDS011;9379;52.134;11.576;2023-07-29T03:55:35;3.40;;;3.10;;
18499;SDS011;9379;52.134;11.576;2023-07-29T03:58:03;2.83;;;2.47;;
18499;SDS011;9379;52.134;11.576;2023-07-29T04:00:30;3.22;;;2.35;;
18499;SDS011;9379;52.134;11.576;2023-07-29T04:02:57;2.50;;;2.28;;
18499;SDS011;9379;52.134;11.576;2023-07-29T04:05:24;3.30;;;2.95;;
18499;SDS011;9379;52.134;11.576;2023-07-29T04:07:50;4.13;;;2.70;;
18499;SDS011;9379;52.134;11.576;2023-07-29T04:10:18;2.63;;;2.42;;
18499;SDS011;9379;52.134;11.576;2023-07-29T04:12:45;3.95;;;1.95;;
18499;SDS011;9379;52.134;11.576;2023-07-29T04:15:14;2.78;;;2.55;;
18499;SDS011;9379;52.134;11.576;2023-07-29T04:17:40;2.58;;;2.38;;
18499;SDS011;9379;52.134;11.576;2023-07-29T04:20:07;4.07;;;2.38;;
18499;SDS011;9379;52.134;11.576;2023-07-29T04:22:35;2.50;;;2.28;;
18499;SDS011;9379;52.134;11.576;2023-07-29T04:25:03;2.40;;;2.20;;
18499;SDS011;9379;52.134;11.576;2023-07-29T04:27:31;3.13;;;2.80;;
18499;SDS011;9379;52.134;11.576;2023-07-29T04:29:58;2.40;;;2.20;;
18499;SDS011;9379;52.134;11.576;2023-07-29T04:32:29;2.42;;;2.22;;
18499;SDS011;9379;52.134;11.576;2023-07-29T04:34:56;2.58;;;2.33;;
18499;SDS011;9379;52.134;11.576;2023-07-29T04:37:22;2.42;;;2.22;;
18499;SDS011;9379;52.134;11.576;2023-07-29T04:39:49;1.67;;;1.33;;
18499;SDS011;9379;52.134;11.576;2023-07-29T04:42:16;2.15;;;1.95;;
18499;SDS011;9379;52.134;11.576;2023-07-29T04:44:43;2.00;;;1.60;;
18499;SDS011;9379;52.134;11.576;2023-07-29T04:47:09;2.63;;;2.42;;
18499;SDS011;9379;52.134;11.576;2023-07-29T04:49:38;2.05;;;1.85;;
18499;SDS011;9379;52.134;11.576;2023-07-29T04:52:05;2.03;;;1.83;;
18499;SDS011;9379;52.134;11.576;2023-07-29T04:54:32;1.88;;;1.67;;
18499;SDS011;9379;52.134;11.576;2023-07-29T04:56:59;1.92;;;1.83;;
18499;SDS011;9379;52.134;11.576;2023-07-29T04:59:26;1.70;;;1.60;;
18499;SDS011;9379;52.134;11.576;2023-07-29T05:01:52;2.28;;;2.00;;
18499;SDS011;9379;52.134;11.576;2023-07-29T05:04:19;2.25;;;1.27;;
18499;SDS011;9379;52.134;11.576;2023-07-29T05:06:47;1.50;;;1.38;;
18499;SDS011;9379;52.134;11.576;2023-07-29T05:09:16;1.40;;;1.30;;
18499;SDS011;9379;52.134;11.576;2023-07-29T05:11:43;3.15;;;2.22;;
18499;SDS011;9379;52.134;11.576;2023-07-29T05:14:11;4.72;;;1.23;;
18499;SDS011;9379;52.134;11.576;2023-07-29T05:16:37;3.45;;;2.13;;
18499;SDS011;9379;52.134;11.576;2023-07-29T05:19:04;5.32;;;1.92;;
18499;SDS011;9379;52.134;11.576;2023-07-29T05:21:31;1.30;;;1.20;;
18499;SDS011;9379;52.134;11.576;2023-07-29T05:23:59;1.50;;;1.30;;
18499;SDS011;9379;52.134;11.576;2023-07-29T05:26:26;1.10;;;1.00;;
18499;SDS011;9379;52.134;11.576;2023-07-29T05:28:53;1.10;;;0.98;;
18499;SDS011;9379;52.134;11.576;2023-07-29T05:31:19;1.50;;;1.40;;
18499;SDS011;9379;52.134;11.576;2023-07-29T05:33:46;1.40;;;1.30;;
18499;SDS011;9379;52.134;11.576;2023-07-29T05:36:13;0.98;;;0.88;;
18499;SDS011;9379;52.134;11.576;2023-07-29T05:38:40;1.33;;;1.23;;
18499;SDS011;9379;52.134;11.576;2023-07-29T05:41:08;1.30;;;1.20;;
18499;SDS011;9379;52.134;11.576;2023-07-29T05:43:35;1.08;;;0.98;;
18499;SDS011;9379;52.134;11.576;2023-07-29T05:46:02;1.33;;;1.02;;
18499;SDS011;9379;52.134;11.576;2023-07-29T05:48:28;1.40;;;1.30;;
18499;SDS011;9379;52.134;11.576;2023-07-29T05:50:55;1.10;;;1.00;;
18499;SDS011;9379;52.134;11.576;2023-07-29T05:53:22;1.15;;;1.05;;
18499;SDS011;9379;52.134;11.576;2023-07-29T05:55:49;1.40;;;1.30;;
18499;SDS011;9379;52.134;11.576;2023-07-29T05:58:17;1.30;;;1.20;;
18499;SDS011;9379;52.134;11.576;2023-07-29T06:00:44;1.60;;;1.50;;
18499;SDS011;9379;52.134;11.576;2023-07-29T06:03:10;1.38;;;1.27;;
18499;SDS011;9379;52.134;11.576;2023-07-29T06:05:37;0.93;;;0.90;;
18499;SDS011;9379;52.134;11.576;2023-07-29T06:08:05;3.15;;;1.80;;
18499;SDS011;9379;52.134;11.576;2023-07-29T06:10:33;1.13;;;1.02;;
18499;SDS011;9379;52.134;11.576;2023-07-29T06:13:00;2.45;;;1.55;;
18499;SDS011;9379;52.134;11.576;2023-07-29T06:15:28;1.58;;;1.48;;
18499;SDS011;9379;52.134;11.576;2023-07-29T06:17:55;2.95;;;1.65;;
18499;SDS011;9379;52.134;11.576;2023-07-29T06:20:21;0.95;;;0.75;;
18499;SDS011;9379;52.134;11.576;2023-07-29T06:22:48;9.82;;;1.10;;
18499;SDS011;9379;52.134;11.576;2023-07-29T06:25:15;1.15;;;1.05;;
18499;SDS011;9379;52.134;11.576;2023-07-29T06:27:42;0.85;;;0.85;;
18499;SDS011;9379;52.134;11.576;2023-07-29T06:30:09;0.80;;;0.80;;
18499;SDS011;9379;52.134;11.576;2023-07-29T06:32:37;1.30;;;1.20;;
18499;SDS011;9379;52.134;11.576;2023-07-29T06:35:04;8.65;;;2.25;;
18499;SDS011;9379;52.134;11.576;2023-07-29T06:37:31;11.55;;;3.10;;
18499;SDS011;9379;52.134;11.576;2023-07-29T06:39:58;0.70;;;0.70;;
18499;SDS011;9379;52.134;11.576;2023-07-29T06:42:25;1.38;;;1.20;;
18499;SDS011;9379;52.134;11.576;2023-07-29T06:44:52;1.50;;;1.00;;
18499;SDS011;9379;52.134;11.576;2023-07-29T06:47:19;0.73;;;0.73;;
18499;SDS011;9379;52.134;11.576;2023-07-29T06:49:47;2.08;;;1.88;;
18499;SDS011;9379;52.134;11.576;2023-07-29T06:52:14;0.60;;;0.60;;
18499;SDS011;9379;52.134;11.576;2023-07-29T06:54:41;0.80;;;0.80;;
18499;SDS011;9379;52.134;11.576;2023-07-29T06:57:07;0.80;;;0.75;;
18499;SDS011;9379;52.134;11.576;2023-07-29T06:59:34;1.02;;;0.90;;
18499;SDS011;9379;52.134;11.576;2023-07-29T07:02:01;1.40;;;1.30;;
18499;SDS011;9379;52.134;11.576;2023-07-29T07:04:28;1.58;;;1.48;;
18499;SDS011;9379;52.134;11.576;2023-07-29T07:06:56;5.00;;;1.35;;
18499;SDS011;9379;52.134;11.576;2023-07-29T07:09:22;3.28;;;1.80;;
18499;SDS011;9379;52.134;11.576;2023-07-29T07:11:49;3.67;;;1.75;;
18499;SDS011;9379;52.134;11.576;2023-07-29T07:14:16;1.60;;;1.40;;
18499;SDS011;9379;52.134;11.576;2023-07-29T07:16:43;1.70;;;1.60;;
18499;SDS011;9379;52.134;11.576;2023-07-29T07:19:10;0.85;;;0.85;;
18499;SDS011;9379;52.134;11.576;2023-07-29T07:21:37;1.45;;;1.35;;
18499;SDS011;9379;52.134;11.576;2023-07-29T07:24:05;1.25;;;1.08;;
18499;SDS011;9379;52.134;11.576;2023-07-29T07:26:32;1.23;;;1.15;;
18499;SDS011;9379;52.134;11.576;2023-07-29T07:28:59;1.98;;;1.13;;
18499;SDS011;9379;52.134;11.576;2023-07-29T07:31:26;4.65;;;1.80;;
18499;SDS011;9379;52.134;11.576;2023-07-29T07:33:52;1.73;;;1.63;;
18499;SDS011;9379;52.134;11.576;2023-07-29T07:36:19;1.30;;;1.20;;
18499;SDS011;9379;52.134;11.576;2023-07-29T07:38:46;2.25;;;2.03;;
18499;SDS011;9379;52.134;11.576;2023-07-29T07:41:14;1.30;;;1.20;;
18499;SDS011;9379;52.134;11.576;2023-07-29T07:43:41;1.63;;;1.38;;
18499;SDS011;9379;52.134;11.576;2023-07-29T07:46:07;1.55;;;1.45;;
18499;SDS011;9379;52.134;11.576;2023-07-29T07:48:34;2.03;;;1.60;;
18499;SDS011;9379;52.134;11.576;2023-07-29T07:51:09;1.38;;;1.25;;
18499;SDS011;9379;52.134;11.576;2023-07-29T07:53:36;1.27;;;1.17;;
18499;SDS011;9379;52.134;11.576;2023-07-29T07:56:03;1.42;;;1.33;;
18499;SDS011;9379;52.134;11.576;2023-07-29T07:58:31;1.00;;;0.90;;
18499;SDS011;9379;52.134;11.576;2023-07-29T08:01:00;1.90;;;1.73;;
18499;SDS011;9379;52.134;11.576;2023-07-29T08:03:28;1.85;;;1.75;;
18499;SDS011;9379;52.134;11.576;2023-07-29T08:05:54;1.33;;;1.27;;
18499;SDS011;9379;52.134;11.576;2023-07-29T08:08:21;3.88;;;1.80;;
18499;SDS011;9379;52.134;11.576;2023-07-29T08:10:48;1.67;;;0.80;;
18499;SDS011;9379;52.134;11.576;2023-07-29T08:13:15;1.63;;;1.50;;
18499;SDS011;9379;52.134;11.576;2023-07-29T08:15:45;3.53;;;1.58;;
18499;SDS011;9379;52.134;11.576;2023-07-29T08:18:12;1.42;;;1.33;;
18499;SDS011;9379;52.134;11.576;2023-07-29T08:20:39;1.23;;;1.13;;
18499;SDS011;9379;52.134;11.576;2023-07-29T08:23:06;1.10;;;1.00;;
18499;SDS011;9379;52.134;11.576;2023-07-29T08:25:33;1.38;;;1.27;;
18499;SDS011;9379;52.134;11.576;2023-07-29T08:28:00;1.33;;;1.20;;
18499;SDS011;9379;52.134;11.576;2023-07-29T08:30:27;1.38;;;1.27;;
18499;SDS011;9379;52.134;11.576;2023-07-29T08:32:55;1.60;;;1.50;;
18499;SDS011;9379;52.134;11.576;2023-07-29T08:35:22;1.42;;;1.33;;
18499;SDS011;9379;52.134;11.576;2023-07-29T08:37:50;0.70;;;0.70;;
18499;SDS011;9379;52.134;11.576;2023-07-29T08:40:17;1.33;;;1.10;;
18499;SDS011;9379;52.134;11.576;2023-07-29T08:42:45;1.77;;;1.67;;
18499;SDS011;9379;52.134;11.576;2023-07-29T08:45:15;3.25;;;1.30;;
18499;SDS011;9379;52.134;11.576;2023-07-29T08:47:43;1.63;;;1.52;;
18499;SDS011;9379;52.134;11.576;2023-07-29T08:50:11;1.52;;;1.33;;
18499;SDS011;9379;52.134;11.576;2023-07-29T08:52:40;1.48;;;1.38;;
18499;SDS011;9379;52.134;11.576;2023-07-29T08:55:08;1.73;;;1.63;;
18499;SDS011;9379;52.134;11.576;2023-07-29T08:57:35;2.38;;;1.05;;
18499;SDS011;9379;52.134;11.576;2023-07-29T09:00:03;1.35;;;1.10;;
18499;SDS011;9379;52.134;11.576;2023-07-29T09:02:30;4.95;;;1.40;;
18499;SDS011;9379;52.134;11.576;2023-07-29T09:04:57;1.67;;;1.58;;
18499;SDS011;9379;52.134;11.576;2023-07-29T09:07:26;2.38;;;2.17;;
18499;SDS011;9379;52.134;11.576;2023-07-29T09:09:53;1.42;;;1.33;;
18499;SDS011;9379;52.134;11.576;2023-07-29T09:12:20;1.67;;;1.58;;
18499;SDS011;9379;52.134;11.576;2023-07-29T09:14:49;1.27;;;1.17;;
18499;SDS011;9379;52.134;11.576;2023-07-29T09:17:18;0.95;;;0.80;;
18499;SDS011;9379;52.134;11.576;2023-07-29T09:19:47;1.35;;;1.25;;
18499;SDS011;9379;52.134;11.576;2023-07-29T09:22:17;0.75;;;0.75;;
18499;SDS011;9379;52.134;11.576;2023-07-29T09:24:46;3.17;;;2.03;;
18499;SDS011;9379;52.134;11.576;2023-07-29T09:27:23;1.73;;;1.55;;
18499;SDS011;9379;52.134;11.576;2023-07-29T09:29:50;0.85;;;0.85;;
18499;SDS011;9379;52.134;11.576;2023-07-29T09:32:17;0.88;;;0.80;;
18499;SDS011;9379;52.134;11.576;2023-07-29T09:34:46;0.88;;;0.85;;
18499;SDS011;9379;52.134;11.576;2023-07-29T09:37:16;2.10;;;1.23;;
18499;SDS011;9379;52.134;11.576;2023-07-29T09:39:46;1.50;;;1.27;;
18499;SDS011;9379;52.134;11.576;2023-07-29T09:42:18;0.90;;;0.90;;
18499;SDS011;9379;52.134;11.576;2023-07-29T09:44:47;4.00;;;0.82;;
18499;SDS011;9379;52.134;11.576;2023-07-29T09:47:18;0.85;;;0.85;;
18499;SDS011;9379;52.134;11.576;2023-07-29T09:49:46;2.10;;;1.80;;
18499;SDS011;9379;52.134;11.576;2023-07-29T09:52:14;0.80;;;0.60;;
18499;SDS011;9379;52.134;11.576;2023-07-29T09:54:42;0.80;;;0.80;;
18499;SDS011;9379;52.134;11.576;2023-07-29T09:57:11;0.80;;;0.80;;
18499;SDS011;9379;52.134;11.576;2023-07-29T09:59:40;0.70;;;0.70;;
18499;SDS011;9379;52.134;11.576;2023-07-29T10:02:07;0.57;;;0.57;;
18499;SDS011;9379;52.134;11.576;2023-07-29T10:04:39;0.82;;;0.82;;
18499;SDS011;9379;52.134;11.576;2023-07-29T10:07:08;0.60;;;0.60;;
18499;SDS011;9379;52.134;11.576;2023-07-29T10:09:36;0.77;;;0.68;;
18499;SDS011;9379;52.134;11.576;2023-07-29T10:12:04;1.50;;;1.02;;
18499;SDS011;9379;52.134;11.576;2023-07-29T10:14:34;0.57;;;0.47;;
18499;SDS011;9379;52.134;11.576;2023-07-29T10:17:01;0.50;;;0.50;;
18499;SDS011;9379;52.134;11.576;2023-07-29T10:19:29;2.13;;;0.80;;
18499;SDS011;9379;52.134;11.576;2023-07-29T10:21:59;0.32;;;0.32;;
18499;SDS011;9379;52.134;11.576;2023-07-29T10:24:30;0.30;;;0.30;;
18499;SDS011;9379;52.134;11.576;2023-07-29T10:26:58;0.40;;;0.40;;
18499;SDS011;9379;52.134;11.576;2023-07-29T10:29:28;0.85;;;0.40;;
18499;SDS011;9379;52.134;11.576;2023-07-29T10:31:59;1.73;;;1.63;;
18499;SDS011;9379;52.134;11.576;2023-07-29T10:34:31;0.63;;;0.63;;
18499;SDS011;9379;52.134;11.576;2023-07-29T10:36:59;0.70;;;0.70;;
18499;SDS011;9379;52.134;11.576;2023-07-29T10:39:26;0.95;;;0.85;;
18499;SDS011;9379;52.134;11.576;2023-07-29T10:41:58;0.50;;;0.50;;
18499;SDS011;9379;52.134;11.576;2023-07-29T10:44:45;1.10;;;0.45;;
18499;SDS011;9379;52.134;11.576;2023-07-29T10:47:16;0.45;;;0.45;;
18499;SDS011;9379;52.134;11.576;2023-07-29T10:49:43;1.60;;;1.23;;
18499;SDS011;9379;52.134;11.576;2023-07-29T10:52:12;5.97;;;1.63;;
18499;SDS011;9379;52.134;11.576;2023-07-29T10:54:42;0.70;;;0.47;;
18499;SDS011;9379;52.134;11.576;2023-07-29T10:57:13;0.50;;;0.50;;
18499;SDS011;9379;52.134;11.576;2023-07-29T10:59:41;0.50;;;0.50;;
18499;SDS011;9379;52.134;11.576;2023-07-29T11:02:20;0.45;;;0.45;;
18499;SDS011;9379;52.134;11.576;2023-07-29T11:04:47;0.43;;;0.43;;
18499;SDS011;9379;52.134;11.576;2023-07-29T11:07:20;0.40;;;0.40;;
18499;SDS011;9379;52.134;11.576;2023-07-29T11:09:52;0.68;;;0.68;;
18499;SDS011;9379;52.134;11.576;2023-07-29T11:12:33;1.85;;;0.60;;
18499;SDS011;9379;52.134;11.576;2023-07-29T11:15:00;1.02;;;0.95;;
18499;SDS011;9379;52.134;11.576;2023-07-29T11:17:30;0.70;;;0.63;;
18499;SDS011;9379;52.134;11.576;2023-07-29T11:19:59;0.63;;;0.63;;
18499;SDS011;9379;52.134;11.576;2023-07-29T11:22:27;6.53;;;1.25;;
18499;SDS011;9379;52.134;11.576;2023-07-29T11:24:55;0.70;;;0.68;;
18499;SDS011;9379;52.134;11.576;2023-07-29T11:27:21;0.50;;;0.50;;
18499;SDS011;9379;52.134;11.576;2023-07-29T11:29:48;1.02;;;0.90;;
18499;SDS011;9379;52.134;11.576;2023-07-29T11:32:15;0.68;;;0.60;;
18499;SDS011;9379;52.134;11.576;2023-07-29T11:34:43;0.90;;;0.60;;
18499;SDS011;9379;52.134;11.576;2023-07-29T11:37:11;1.45;;;1.17;;
18499;SDS011;9379;52.134;11.576;2023-07-29T11:39:39;1.00;;;1.00;;
18499;SDS011;9379;52.134;11.576;2023-07-29T11:42:06;3.50;;;1.27;;
18499;SDS011;9379;52.134;11.576;2023-07-29T11:44:36;0.60;;;0.60;;
18499;SDS011;9379;52.134;11.576;2023-07-29T11:47:05;0.90;;;0.88;;
18499;SDS011;9379;52.134;11.576;2023-07-29T11:49:33;1.75;;;0.80;;
18499;SDS011;9379;52.134;11.576;2023-07-29T11:52:01;0.90;;;0.90;;
18499;SDS011;9379;52.134;11.576;2023-07-29T11:54:29;2.17;;;1.27;;
18499;SDS011;9379;52.134;11.576;2023-07-29T11:56:56;1.42;;;1.33;;
18499;SDS011;9379;52.134;11.576;2023-07-29T11:59:23;1.13;;;1.02;;
18499;SDS011;9379;52.134;11.576;2023-07-29T12:01:50;4.03;;;1.15;;
18499;SDS011;9379;52.134;11.576;2023-07-29T12:04:19;1.40;;;1.30;;
18499;SDS011;9379;52.134;11.576;2023-07-29T12:06:46;1.05;;;0.95;;
18499;SDS011;9379;52.134;11.576;2023-07-29T12:09:14;1.10;;;1.02;;
18499;SDS011;9379;52.134;11.576;2023-07-29T12:11:41;2.70;;;1.95;;
18499;SDS011;9379;52.134;11.576;2023-07-29T12:14:08;0.75;;;0.60;;
18499;SDS011;9379;52.134;11.576;2023-07-29T12:16:40;1.20;;;1.00;;
18499;SDS011;9379;52.134;11.576;2023-07-29T12:19:07;1.63;;;1.52;;
18499;SDS011;9379;52.134;11.576;2023-07-29T12:21:34;1.30;;;1.20;;
18499;SDS011;9379;52.134;11.576;2023-07-29T12:24:02;0.70;;;0.70;;
18499;SDS011;9379;52.134;11.576;2023-07-29T12:26:33;1.30;;;1.00;;
18499;SDS011;9379;52.134;11.576;2023-07-29T12:29:10;0.82;;;0.82;;
18499;SDS011;9379;52.134;11.576;2023-07-29T12:31:38;3.47;;;1.25;;
18499;SDS011;9379;52.134;11.576;2023-07-29T12:34:05;1.08;;;0.90;;
18499;SDS011;9379;52.134;11.576;2023-07-29T12:36:41;4.22;;;1.20;;
18499;SDS011;9379;52.134;11.576;2023-07-29T12:39:15;1.00;;;0.90;;
18499;SDS011;9379;52.134;11.576;2023-07-29T12:41:44;1.35;;;1.25;;
18499;SDS011;9379;52.134;11.576;2023-07-29T12:44:11;1.20;;;1.05;;
18499;SDS011;9379;52.134;11.576;2023-07-29T12:46:38;1.27;;;1.17;;
18499;SDS011;9379;52.134;11.576;2023-07-29T12:49:04;1.52;;;1.27;;
18499;SDS011;9379;52.134;11.576;2023-07-29T12:51:31;1.17;;;1.08;;
18499;SDS011;9379;52.134;11.576;2023-07-29T12:53:58;0.57;;;0.57;;
18499;SDS011;9379;52.134;11.576;2023-07-29T12:56:25;2.42;;;1.70;;
18499;SDS011;9379;52.134;11.576;2023-07-29T12:58:53;1.52;;;1.42;;
18499;SDS011;9379;52.134;11.576;2023-07-29T13:01:20;3.08;;;1.30;;
18499;SDS011;9379;52.134;11.576;2023-07-29T13:03:47;0.93;;;0.93;;
18499;SDS011;9379;52.134;11.576;2023-07-29T13:06:14;1.40;;;1.30;;
18499;SDS011;9379;52.134;11.576;2023-07-29T13:08:41;1.42;;;1.33;;
18499;SDS011;9379;52.134;11.576;2023-07-29T13:11:08;1.40;;;1.30;;
18499;SDS011;9379;52.134;11.576;2023-07-29T13:13:35;1.52;;;1.42;;
18499;SDS011;9379;52.134;11.576;2023-07-29T13:16:04;3.13;;;2.83;;
18499;SDS011;9379;52.134;11.576;2023-07-29T13:18:31;1.45;;;1.35;;
18499;SDS011;9379;52.134;11.576;2023-07-29T13:20:58;2.03;;;1.77;;
18499;SDS011;9379;52.134;11.576;2023-07-29T13:23:25;1.67;;;1.50;;
18499;SDS011;9379;52.134;11.576;2023-07-29T13:25:53;2.20;;;2.10;;
18499;SDS011;9379;52.134;11.576;2023-07-29T13:28:22;5.00;;;1.95;;
18499;SDS011;9379;52.134;11.576;2023-07-29T13:30:49;2.08;;;1.92;;
18499;SDS011;9379;52.134;11.576;2023-07-29T13:33:17;2.33;;;1.88;;
18499;SDS011;9379;52.134;11.576;2023-07-29T13:35:44;2.80;;;2.58;;
18499;SDS011;9379;52.134;11.576;2023-07-29T13:38:11;2.28;;;2.05;;
18499;SDS011;9379;52.134;11.576;2023-07-29T13:40:38;2.40;;;2.20;;
18499;SDS011;9379;52.134;11.576;2023-07-29T13:43:04;2.50;;;2.30;;
18499;SDS011;9379;52.134;11.576;2023-07-29T13:45:31;1.83;;;1.73;;
18499;SDS011;9379;52.134;11.576;2023-07-29T13:47:59;2.25;;;1.52;;
18499;SDS011;9379;52.134;11.576;2023-07-29T13:50:27;2.03;;;1.92;;
18499;SDS011;9379;52.134;11.576;2023-07-29T13:52:54;3.53;;;2.53;;
18499;SDS011;9379;52.134;11.576;2023-07-29T13:55:21;2.03;;;1.83;;
18499;SDS011;9379;52.134;11.576;2023-07-29T13:57:48;3.70;;;2.75;;
18499;SDS011;9379;52.134;11.576;2023-07-29T14:00:14;1.63;;;1.52;;
18499;SDS011;9379;52.134;11.576;2023-07-29T14:02:41;2.10;;;1.88;;
18499;SDS011;9379;52.134;11.576;2023-07-29T14:05:08;2.60;;;2.40;;
18499;SDS011;9379;52.134;11.576;2023-07-29T14:10:45;2.88;;;2.67;;
18499;SDS011;9379;52.134;11.576;2023-07-29T14:13:12;4.72;;;2.13;;
18499;SDS011;9379;52.134;11.576;2023-07-29T14:15:38;2.53;;;2.42;;
18499;SDS011;9379;52.134;11.576;2023-07-29T14:18:05;2.65;;;2.45;;
18499;SDS011;9379;52.134;11.576;2023-07-29T14:20:32;2.65;;;2.45;;
18499;SDS011;9379;52.134;11.576;2023-07-29T14:23:06;2.55;;;2.35;;
18499;SDS011;9379;52.134;11.576;2023-07-29T14:25:46;2.55;;;2.35;;
18499;SDS011;9379;52.134;11.576;2023-07-29T14:28:13;3.15;;;2.85;;
18499;SDS011;9379;52.134;11.576;2023-07-29T14:30:40;2.60;;;2.40;;
18499;SDS011;9379;52.134;11.576;2023-07-29T14:33:07;1.77;;;1.60;;
18499;SDS011;9379;52.134;11.576;2023-07-29T14:35:34;2.13;;;1.92;;
18499;SDS011;9379;52.134;11.576;2023-07-29T14:38:01;4.40;;;2.33;;
18499;SDS011;9379;52.134;11.576;2023-07-29T14:40:29;1.67;;;1.52;;
18499;SDS011;9379;52.134;11.576;2023-07-29T14:42:57;4.88;;;2.50;;
18499;SDS011;9379;52.134;11.576;2023-07-29T14:45:24;2.38;;;2.17;;
18499;SDS011;9379;52.134;11.576;2023-07-29T14:47:51;2.58;;;1.83;;
18499;SDS011;9379;52.134;11.576;2023-07-29T14:50:18;2.33;;;2.13;;
18499;SDS011;9379;52.134;11.576;2023-07-29T14:52:44;2.88;;;2.67;;
18499;SDS011;9379;52.134;11.576;2023-07-29T14:55:11;2.03;;;1.92;;